• Join FlightAware (Why Join?)
  • Login
  • US Flag 
03:26PM EST


 

Airport Tracker/Info


-or-


 

Live Flight TrackerFlight Track Log ✈ EZY2285 ✈ 09-Apr-2013 ✈ EGGW / LTN - LIMC / MXP

Flight Track Log - Related Links

Times and Time Zones

All times are in EDT time to prevent confusion due to time zone crossing. See the EZY2285 flight status page for this flight to view local times or setup timezone preferences in your user account.

Time Position Orientation Groundspeed Altitude Reporting Facility
EDT Latitude Longitude Course Direction KTS MPH feet Rate Location/Type
01:35PM 51.1763 0.8304 133° Southeast  Level Estimated
01:36PM 51.1220 0.9211 134° Southeast  Level Estimated
01:37PM 51.0677 1.0115 134° Southeast  Level Estimated
01:38PM 51.0134 1.1018 134° Southeast  Level Estimated
01:39PM 50.9589 1.1919 134° Southeast  Level Estimated
01:40PM 50.9044 1.2817 134° Southeast  Level Estimated
01:41PM 50.8498 1.3714 134° Southeast  Level Estimated
01:42PM 50.7952 1.4608 134° Southeast  Level Estimated
01:43PM 50.7405 1.5500 134° Southeast  Level Estimated
01:44PM 50.6885 1.6344 134° Southeast  Level Estimated
01:45PM 50.6365 1.7187 134° Southeast  Level Estimated
01:46PM 50.5845 1.8027 134° Southeast  Level Estimated
01:47PM 50.5323 1.8865 134° Southeast  Level Estimated
01:48PM 50.4801 1.9702 134° Southeast  Level Estimated
01:49PM 50.4279 2.0537 134° Southeast  Level Estimated
01:50PM 50.3756 2.1370 135° Southeast  Level Estimated
01:51PM 50.3232 2.2201 135° Southeast  Level Estimated
01:52PM 50.2708 2.3031 135° Southeast  Level Estimated
01:53PM 50.2183 2.3858 135° Southeast  Level Estimated
01:54PM 50.1658 2.4684 135° Southeast  Level Estimated
01:55PM 50.0980 2.5745 135° Southeast  Level Estimated
01:56PM 50.0301 2.6804 135° Southeast  Level Estimated
01:57PM 49.9621 2.7859 135° Southeast  Level Estimated
01:58PM 49.8940 2.8912 135° Southeast  Level Estimated
01:59PM 49.8258 2.9961 135° Southeast  Level Estimated
02:00PM 49.7575 3.1008 135° Southeast  Level Estimated
02:01PM 49.6891 3.2052 135° Southeast  Level Estimated
02:02PM 49.6207 3.3093 135° Southeast  Level Estimated
02:03PM 49.5521 3.4130 136° Southeast  Level Estimated
02:04PM 49.4834 3.5165 136° Southeast  Level Estimated
02:05PM 49.4147 3.6197 136° Southeast  Level Estimated
02:06PM 49.3458 3.7226 136° Southeast  Level Estimated
02:07PM 49.2769 3.8253 136° Southeast  Level Estimated
02:08PM 49.2079 3.9276 136° Southeast  Level Estimated
02:09PM 49.1388 4.0297 136° Southeast  Level Estimated
02:10PM 49.0696 4.1314 136° Southeast  Level Estimated
02:11PM 49.0003 4.2329 136° Southeast  Level Estimated
02:12PM 48.9309 4.3341 136° Southeast  Level Estimated
02:13PM 48.8614 4.4350 136° Southeast  Level Estimated
02:14PM 48.7919 4.5357 136° Southeast  Level Estimated
02:15PM 48.7222 4.6360 136° Southeast  Level Estimated
02:16PM 48.6525 4.7361 137° Southeast  Level Estimated
02:17PM 48.5827 4.8359 137° Southeast  Level Estimated
02:18PM 48.5128 4.9355 137° Southeast  Level Estimated
02:19PM 48.4428 5.0347 137° Southeast  Level Estimated
02:20PM 48.3727 5.1337 137° Southeast  Level Estimated
02:21PM 48.3026 5.2324 137° Southeast  Level Estimated
02:22PM 48.2323 5.3309 137° Southeast  Level Estimated
02:23PM 48.1620 5.4290 137° Southeast  Level Estimated
02:24PM 48.0916 5.5269 137° Southeast  Level Estimated
02:25PM 48.0211 5.6246 137° Southeast  Level Estimated
02:26PM 47.9505 5.7219 137° Southeast  Level Estimated
02:27PM 47.8799 5.8190 137° Southeast  Level Estimated
02:28PM 47.8091 5.9159 137° Southeast  Level Estimated
02:29PM 47.7383 6.0125 137° Southeast  Level Estimated
02:30PM 47.6674 6.1088 138° Southeast  Level Estimated
02:31PM 47.5964 6.2048 138° Southeast  Level Estimated
02:32PM 47.5254 6.3006 138° Southeast  Level Estimated
02:33PM 47.4542 6.3961 138° Southeast  Level Estimated
02:34PM 47.3830 6.4914 138° Southeast  Level Estimated
02:35PM 47.3117 6.5864 138° Southeast  Level Estimated
02:36PM 47.2403 6.6812 138° Southeast  Level Estimated
02:37PM 47.1689 6.7757 138° Southeast  Level Estimated
02:38PM 47.0973 6.8699 138° Southeast  Level Estimated
02:39PM 47.0257 6.9640 138° Southeast  Level Estimated
02:40PM 46.9540 7.0577 138° Southeast  Level Estimated
02:41PM 46.8823 7.1512 138° Southeast  Level Estimated
02:42PM 46.8104 7.2444 138° Southeast  Level Estimated
02:43PM 46.7385 7.3374 138° Southeast  Level Estimated
02:44PM 46.6665 7.4302 139° Southeast  Level Estimated
02:45PM 46.5945 7.5227 139° Southeast  Level Estimated
02:46PM 46.5223 7.6149 139° Southeast  Level Estimated
02:47PM 46.4501 7.7070 139° Southeast  Level Estimated
02:48PM 46.3778 7.7987 139° Southeast  Level Estimated
02:49PM 46.3146 7.8787 139° Southeast  Level Estimated
02:50PM 46.2513 7.9585 139° Southeast  Level Estimated
02:51PM 46.1880 8.0381 139° Southeast  Level Estimated
02:52PM 46.1246 8.1176 139° Southeast  Level Estimated
02:53PM 46.0612 8.1968 139° Southeast  Level Estimated
02:54PM 45.9977 8.2759 139° Southeast  Level Estimated
02:55PM 45.9341 8.3548 139° Southeast  Level Estimated
02:56PM 45.8705 8.4335 139° Southeast  Level Estimated
02:57PM 45.8069 8.5120 139° Southeast  Level Estimated
02:58PM 45.7431 8.5903 139° Southeast  Level Estimated
02:59PM 45.6794 8.6685 139° Southeast  Level Estimated
03:00PM 45.6306 8.7281 139° Southeast  Level Estimated
03:01PM 45.6306 8.7281 170° South  Level Estimated
03:02PM 45.6306 8.7281 170° South  Level Estimated
03:03PM 45.6306 8.7281 170° South  Level Estimated
03:04PM 45.6306 8.7281 170° South  Level Estimated
03:05PM 45.6306 8.7281 170° South  Level Estimated
03:06PM 45.6306 8.7281 170° South  Level Estimated
03:07PM 45.6306 8.7281 170° South  Level Estimated
03:08PM 45.6306 8.7281 170° South  Level Estimated
03:09PM 45.6306 8.7281 170° South  Level Estimated
03:10PM 45.6306 8.7281 170° South  Level Estimated
03:11PM 45.6306 8.7281 170° South  Level Estimated
03:12PM 45.6306 8.7281 170° South  Level Estimated
03:13PM 45.6306 8.7281 170° South  Level Estimated
03:14PM 45.6306 8.7281 170° South  Level Estimated
03:15PM 45.6306 8.7281 170° South  Level Estimated
03:16PM 45.6306 8.7281 170° South  Level Estimated
03:17PM 45.6306 8.7281 170° South  Level Estimated